Time;durP1;ratioP1;P1;durP2;ratioP2;P2;SDS_P1;SDS_P2;PMS_P1;PMS_P2;Temp;Humidity;BMP_temperature;BMP_pressure;BME280_temperature;BME280_humidity;BME280_pressure;Samples;Min_cycle;Max_cycle;Signal;HPM_P1;HPM_P2
2022/05/18 00:00:28;;;;;;;11.40;6.65;;;18.70;99.90;;;;;;5050554;28;20072;-67
2022/05/18 00:02:56;;;;;;;12.15;7.18;;;18.60;99.90;;;;;;5049576;28;20048;-67
2022/05/18 00:05:22;;;;;;;11.68;7.38;;;18.50;99.90;;;;;;5065731;28;20071;-67
2022/05/18 00:07:47;;;;;;;12.80;7.30;;;18.50;99.90;;;;;;5068588;28;20052;-68
2022/05/18 00:10:13;;;;;;;11.25;6.72;;;18.40;99.90;;;;;;5068190;28;20111;-67
2022/05/18 00:12:46;;;;;;;12.70;7.05;;;18.40;99.90;;;;;;5069795;28;20040;-67
2022/05/18 00:15:14;;;;;;;13.55;7.25;;;18.40;99.90;;;;;;5071274;28;20052;-68
2022/05/18 00:17:40;;;;;;;12.55;7.63;;;18.40;99.90;;;;;;5072009;28;20045;-67
2022/05/18 00:20:07;;;;;;;11.93;6.43;;;18.30;99.90;;;;;;5072645;28;20117;-67
2022/05/18 00:22:33;;;;;;;14.70;6.93;;;18.30;99.90;;;;;;5069112;28;20049;-67
2022/05/18 00:25:02;;;;;;;12.73;7.30;;;18.20;99.90;;;;;;5066255;28;20067;-67
2022/05/18 00:27:28;;;;;;;11.45;7.10;;;18.20;99.90;;;;;;5049650;28;20045;-67
2022/05/18 00:29:53;;;;;;;13.35;7.28;;;18.20;99.90;;;;;;5048881;28;20489;-67
2022/05/18 00:32:19;;;;;;;11.23;6.88;;;18.10;99.90;;;;;;5048213;28;20119;-67
2022/05/18 00:34:45;;;;;;;17.42;7.45;;;18.70;99.90;;;;;;5049788;28;20424;-67
2022/05/18 00:37:11;;;;;;;13.25;6.85;;;18.10;99.90;;;;;;5048864;28;20088;-67
2022/05/18 00:39:36;;;;;;;13.35;7.28;;;18.90;99.90;;;;;;5048759;28;20083;-67
2022/05/18 00:42:02;;;;;;;16.88;7.20;;;18.60;99.90;;;;;;5048467;28;20379;-67
2022/05/18 00:44:28;;;;;;;12.85;6.82;;;18.00;99.90;;;;;;5048726;28;20044;-67
2022/05/18 00:46:53;;;;;;;10.20;7.07;;;18.30;99.90;;;;;;5048481;28;20049;-67
2022/05/18 00:49:19;;;;;;;10.30;6.43;;;18.00;99.90;;;;;;5049652;28;20449;-66
2022/05/18 00:51:49;;;;;;;10.82;5.88;;;18.00;99.90;;;;;;5048479;28;20053;-67
2022/05/18 00:54:20;;;;;;;10.27;6.35;;;17.90;99.90;;;;;;5049211;28;20045;-67
2022/05/18 00:56:55;;;;;;;10.77;5.90;;;17.90;99.90;;;;;;5047690;28;20124;-67
2022/05/18 00:59:34;;;;;;;9.32;6.22;;;17.90;99.90;;;;;;5048954;28;20126;-67
2022/05/18 01:02:02;;;;;;;9.65;5.50;;;17.90;99.90;;;;;;5049381;28;20045;-67
2022/05/18 01:04:28;;;;;;;9.50;5.78;;;17.90;99.90;;;;;;5049326;28;20040;-66
2022/05/18 01:07:07;;;;;;;10.73;6.18;;;17.80;99.90;;;;;;5048454;28;20122;-66
2022/05/18 01:09:37;;;;;;;10.63;5.90;;;17.90;99.90;;;;;;5049298;28;20384;-68
2022/05/18 01:12:04;;;;;;;9.57;5.53;;;17.80;99.90;;;;;;5049054;28;20045;-67
2022/05/18 01:14:39;;;;;;;11.52;5.97;;;17.80;99.90;;;;;;5049728;28;20049;-66
2022/05/18 01:17:05;;;;;;;10.43;5.60;;;17.70;99.90;;;;;;5050895;28;20056;-67
2022/05/18 01:19:40;;;;;;;11.18;5.80;;;17.70;99.90;;;;;;5048682;28;20045;-67
2022/05/18 01:22:40;;;;;;;13.00;6.20;;;17.70;99.90;;;;;;5048246;28;20081;-68
2022/05/18 01:25:18;;;;;;;10.25;5.95;;;17.70;99.90;;;;;;5049133;28;20066;-68
2022/05/18 01:27:44;;;;;;;12.75;5.90;;;17.60;99.90;;;;;;5047928;28;20053;-68
2022/05/18 01:30:11;;;;;;;10.98;6.38;;;17.60;99.90;;;;;;5048749;28;20110;-67
2022/05/18 01:32:46;;;;;;;12.18;7.00;;;17.60;99.90;;;;;;5048797;28;20055;-68
2022/05/18 01:35:15;;;;;;;14.43;7.25;;;17.50;99.90;;;;;;5047647;28;20037;-68
2022/05/18 01:37:40;;;;;;;12.73;6.85;;;17.50;99.90;;;;;;5047628;28;20049;-68
2022/05/18 01:40:33;;;;;;;10.80;7.22;;;17.50;99.90;;;;;;5063437;28;20044;-68
2022/05/18 01:43:13;;;;;;;11.05;6.90;;;17.40;99.90;;;;;;5048140;28;20056;-68
2022/05/18 01:45:39;;;;;;;13.77;6.50;;;17.40;99.90;;;;;;5049283;28;20106;-68
2022/05/18 01:48:14;;;;;;;11.40;6.47;;;17.40;99.90;;;;;;5046341;28;20481;-68
2022/05/18 01:50:41;;;;;;;;;;;17.40;99.90;;;;;;5049007;28;20044;-68
2022/05/18 01:53:07;;;;;;;9.60;6.30;;;17.70;99.90;;;;;;5048287;28;19924;-68
2022/05/18 01:55:33;;;;;;;9.00;5.38;;;17.30;99.90;;;;;;5049991;28;20048;-68
2022/05/18 01:57:59;;;;;;;8.50;5.43;;;17.30;99.90;;;;;;5049911;28;20083;-68
2022/05/18 02:00:26;;;;;;;10.23;5.60;;;17.30;99.90;;;;;;5048776;28;20129;-67
2022/05/18 02:02:52;;;;;;;12.18;5.95;;;17.30;99.90;;;;;;5048067;28;20049;-68
2022/05/18 02:05:18;;;;;;;11.20;5.97;;;17.30;99.90;;;;;;5049829;28;20041;-68
2022/05/18 02:07:44;;;;;;;10.57;5.20;;;17.30;99.90;;;;;;5048246;28;20045;-68
2022/05/18 02:10:11;;;;;;;9.45;5.50;;;17.20;99.90;;;;;;5047635;28;20044;-68
2022/05/18 02:12:37;;;;;;;9.48;5.63;;;17.20;99.90;;;;;;5029500;28;20091;-68
2022/05/18 02:15:03;;;;;;;9.02;5.80;;;17.20;99.90;;;;;;5048369;28;20072;-68
2022/05/18 02:17:30;;;;;;;9.88;6.20;;;17.20;99.90;;;;;;5058159;28;20048;-67
2022/05/18 02:19:57;;;;;;;9.23;5.90;;;17.20;99.90;;;;;;5068507;28;20401;-67
2022/05/18 02:22:23;;;;;;;9.32;5.88;;;17.10;99.90;;;;;;5066435;28;20056;-68
2022/05/18 02:24:49;;;;;;;9.30;5.93;;;17.30;99.90;;;;;;5068703;28;20041;-68
2022/05/18 02:27:15;;;;;;;10.30;5.70;;;17.10;99.90;;;;;;5066863;28;20066;-67
2022/05/18 02:29:40;;;;;;;9.77;5.85;;;17.10;99.90;;;;;;5067307;28;20051;-68
2022/05/18 02:32:06;;;;;;;8.52;5.70;;;17.20;99.90;;;;;;5066712;28;20044;-68
2022/05/18 02:34:32;;;;;;;7.35;5.72;;;17.10;99.90;;;;;;5048577;28;20045;-67
2022/05/18 02:36:58;;;;;;;9.60;6.15;;;17.10;99.90;;;;;;5057258;28;20059;-68
2022/05/18 02:39:23;;;;;;;10.73;6.05;;;17.70;99.90;;;;;;5068277;28;20044;-67
2022/05/18 02:41:50;;;;;;;9.82;6.65;;;17.00;99.90;;;;;;5068780;28;20544;-68
2022/05/18 02:44:17;;;;;;;9.73;6.30;;;17.10;99.90;;;;;;5066844;28;20091;-68
2022/05/18 02:46:42;;;;;;;10.50;6.68;;;17.00;99.90;;;;;;5068704;28;20048;-68
2022/05/18 02:49:09;;;;;;;13.82;6.55;;;17.00;99.90;;;;;;5072086;28;20044;-68
2022/05/18 02:51:34;;;;;;;10.10;5.88;;;16.90;99.90;;;;;;5070748;28;20122;-68
2022/05/18 02:54:01;;;;;;;11.07;5.93;;;17.50;99.90;;;;;;5066686;28;20041;-67
2022/05/18 02:56:27;;;;;;;7.75;5.82;;;17.50;99.90;;;;;;5050827;28;20422;-68
2022/05/18 02:58:56;;;;;;;11.40;6.32;;;16.90;99.90;;;;;;5051070;28;20052;-68
2022/05/18 03:01:27;;;;;;;12.60;6.22;;;16.80;99.90;;;;;;5050250;28;20056;-68
2022/05/18 03:03:54;;;;;;;10.10;6.50;;;16.80;99.90;;;;;;5051957;28;20420;-68
2022/05/18 03:06:22;;;;;;;11.18;6.50;;;16.80;99.90;;;;;;5054851;28;20048;-68
2022/05/18 03:08:48;;;;;;;11.60;6.47;;;16.80;99.90;;;;;;5071669;28;20044;-68
2022/05/18 03:11:15;;;;;;;9.65;6.57;;;16.80;99.90;;;;;;5070646;28;20047;-67
2022/05/18 03:13:41;;;;;;;9.90;6.30;;;16.70;99.90;;;;;;5073298;28;20360;-68
2022/05/18 03:16:07;;;;;;;9.85;6.35;;;16.70;99.90;;;;;;5072387;28;20119;-68
2022/05/18 03:18:33;;;;;;;10.10;6.60;;;16.70;99.90;;;;;;5071475;28;20044;-68
2022/05/18 03:23:44;;;;;;;10.88;6.68;;;16.60;99.90;;;;;;5071188;28;20053;-66
2022/05/18 03:26:15;;;;;;;11.27;6.90;;;16.60;99.90;;;;;;5068893;28;20121;-66
2022/05/18 03:28:43;;;;;;;10.65;6.50;;;16.60;99.90;;;;;;5065493;28;20369;-67
2022/05/18 03:31:10;;;;;;;10.25;6.43;;;16.60;99.90;;;;;;5051319;28;20386;-67
2022/05/18 03:33:37;;;;;;;10.40;6.32;;;16.60;99.90;;;;;;5050048;28;20497;-67
2022/05/18 03:36:04;;;;;;;11.02;6.20;;;16.50;99.90;;;;;;5051532;28;20367;-67
2022/05/18 03:38:30;;;;;;;11.75;6.78;;;16.50;99.90;;;;;;5033020;28;20072;-67
2022/05/18 03:40:55;;;;;;;10.63;6.70;;;16.80;99.90;;;;;;5050595;28;20075;-67
2022/05/18 03:43:22;;;;;;;11.13;6.65;;;16.50;99.90;;;;;;5049441;28;20903;-67
2022/05/18 03:45:48;;;;;;;10.95;6.72;;;17.40;99.90;;;;;;5051825;28;20037;-67
2022/05/18 03:48:14;;;;;;;11.07;6.75;;;16.50;99.90;;;;;;5049981;28;20127;-67
2022/05/18 03:50:44;;;;;;;8.68;6.82;;;16.50;99.90;;;;;;5050874;28;20049;-67
2022/05/18 03:53:10;;;;;;;10.23;7.22;;;16.50;99.90;;;;;;5049263;28;20163;-67
2022/05/18 03:55:37;;;;;;;12.45;7.00;;;16.50;99.90;;;;;;5049397;28;20505;-67
2022/05/18 03:58:03;;;;;;;10.32;7.05;;;16.50;99.90;;;;;;5050207;28;20088;-67
2022/05/18 04:00:30;;;;;;;8.93;6.78;;;16.50;99.90;;;;;;5049430;28;20073;-67
2022/05/18 04:02:57;;;;;;;11.23;6.80;;;16.40;99.90;;;;;;5048633;28;20060;-67
2022/05/18 04:05:22;;;;;;;11.50;6.97;;;16.40;99.90;;;;;;5049648;28;20047;-67
2022/05/18 04:07:49;;;;;;;9.52;6.63;;;16.40;99.90;;;;;;5067510;28;20544;-67
2022/05/18 04:10:15;;;;;;;11.52;6.85;;;16.60;99.90;;;;;;5057992;28;20045;-66
2022/05/18 04:12:42;;;;;;;11.45;7.00;;;16.40;99.90;;;;;;5049322;28;20111;-67
2022/05/18 04:15:08;;;;;;;12.25;6.50;;;16.50;99.90;;;;;;5052020;28;20045;-68
2022/05/18 04:17:35;;;;;;;11.55;6.72;;;16.40;99.90;;;;;;5052451;28;20090;-67
2022/05/18 04:20:02;;;;;;;9.38;6.70;;;16.40;99.90;;;;;;5052633;28;20057;-67
2022/05/18 04:22:27;;;;;;;12.10;6.85;;;16.40;99.90;;;;;;5055665;28;20374;-67
2022/05/18 04:24:53;;;;;;;10.50;6.63;;;16.50;99.90;;;;;;5064109;28;20093;-67
2022/05/18 04:27:19;;;;;;;8.85;6.53;;;16.50;99.90;;;;;;5064362;28;20045;-67
2022/05/18 04:29:44;;;;;;;12.20;6.82;;;16.50;99.90;;;;;;5051028;28;20045;-67
2022/05/18 04:32:10;;;;;;;9.95;6.60;;;16.50;99.90;;;;;;5051097;28;20448;-67
2022/05/18 04:34:36;;;;;;;8.45;6.82;;;16.50;99.90;;;;;;5050113;28;20044;-67
2022/05/18 04:37:02;;;;;;;12.82;6.63;;;16.50;99.90;;;;;;5048669;28;20351;-68
2022/05/18 04:39:28;;;;;;;10.82;6.68;;;16.60;99.90;;;;;;5048681;28;20401;-67
2022/05/18 04:41:53;;;;;;;10.23;6.35;;;17.20;99.90;;;;;;5050259;28;20056;-67
2022/05/18 04:44:19;;;;;;;11.27;6.57;;;16.60;99.90;;;;;;5049131;28;20044;-67
2022/05/18 04:46:44;;;;;;;12.20;6.90;;;16.80;99.90;;;;;;5049977;28;20049;-67
2022/05/18 04:49:11;;;;;;;12.50;6.90;;;17.10;99.90;;;;;;5049053;28;20194;-67
2022/05/18 04:51:37;;;;;;;11.27;6.13;;;16.70;99.90;;;;;;5048790;28;20040;-68
2022/05/18 04:54:03;;;;;;;10.77;6.45;;;16.70;99.90;;;;;;5049366;28;20063;-67
2022/05/18 04:56:28;;;;;;;12.55;6.60;;;16.70;99.90;;;;;;5063388;28;20061;-68
2022/05/18 04:58:54;;;;;;;11.40;7.07;;;16.80;99.90;;;;;;5047688;28;20092;-67
2022/05/18 05:01:20;;;;;;;13.50;6.70;;;16.80;99.90;;;;;;5048500;28;20041;-67
2022/05/18 05:03:46;;;;;;;10.45;6.50;;;17.50;99.90;;;;;;5049603;28;20044;-67
2022/05/18 05:06:11;;;;;;;13.60;7.30;;;16.90;99.90;;;;;;5050350;28;20079;-67
2022/05/18 05:08:37;;;;;;;11.10;6.65;;;16.90;99.90;;;;;;5067869;28;20511;-67
2022/05/18 05:11:06;;;;;;;12.88;7.10;;;16.90;99.90;;;;;;5068759;28;20044;-67
2022/05/18 05:13:32;;;;;;;10.63;6.53;;;17.40;99.90;;;;;;5067262;28;20208;-67
2022/05/18 05:16:06;;;;;;;9.73;6.65;;;17.00;99.90;;;;;;5068196;28;20053;-67
2022/05/18 05:18:33;;;;;;;10.10;6.85;;;17.00;99.90;;;;;;5070225;28;20052;-67
2022/05/18 05:20:59;;;;;;;11.57;7.25;;;17.40;99.90;;;;;;5071256;28;20397;-67
2022/05/18 05:23:26;;;;;;;12.32;6.60;;;17.10;99.90;;;;;;5067526;28;20043;-67
2022/05/18 05:25:53;;;;;;;13.00;6.97;;;17.10;99.90;;;;;;5068094;28;20040;-67
2022/05/18 05:28:18;;;;;;;12.18;7.10;;;17.20;99.90;;;;;;5067384;28;20113;-68
2022/05/18 05:30:44;;;;;;;11.27;6.68;;;17.40;99.90;;;;;;5084803;28;20488;-66
2022/05/18 05:33:11;;;;;;;12.60;7.05;;;17.20;99.90;;;;;;5067999;28;20055;-67
2022/05/18 05:35:40;;;;;;;11.68;7.00;;;17.30;99.90;;;;;;5068890;28;20049;-67
2022/05/18 05:38:06;;;;;;;14.23;7.40;;;17.50;99.90;;;;;;5070205;28;20476;-67
2022/05/18 05:40:31;;;;;;;12.40;7.15;;;17.50;99.90;;;;;;5069250;28;20127;-67
2022/05/18 05:42:57;;;;;;;13.40;7.45;;;17.50;99.90;;;;;;5068348;28;20368;-68
2022/05/18 05:45:23;;;;;;;16.75;7.78;;;17.50;99.90;;;;;;5067810;28;20387;-68
2022/05/18 05:47:48;;;;;;;11.40;7.00;;;17.60;99.90;;;;;;5066459;28;20405;-68
2022/05/18 05:50:14;;;;;;;14.77;7.72;;;17.60;99.90;;;;;;5067854;28;20087;-68
2022/05/18 05:52:40;;;;;;;12.93;7.57;;;17.70;99.90;;;;;;5067206;28;20051;-68
2022/05/18 05:55:06;;;;;;;11.50;7.43;;;17.70;99.90;;;;;;5067214;28;20492;-68
2022/05/18 05:57:31;;;;;;;10.45;7.43;;;17.80;99.90;;;;;;5067149;28;20056;-68
2022/05/18 05:59:57;;;;;;;16.85;7.75;;;17.80;99.90;;;;;;5067151;28;20048;-67
2022/05/18 06:02:23;;;;;;;13.38;8.32;;;17.90;99.90;;;;;;5066620;28;20090;-67
2022/05/18 06:04:49;;;;;;;12.85;7.85;;;18.20;99.90;;;;;;5067631;28;20036;-68
2022/05/18 06:07:14;;;;;;;11.77;7.72;;;18.10;99.90;;;;;;5067441;28;20141;-68
2022/05/18 06:09:41;;;;;;;13.90;8.13;;;18.10;99.90;;;;;;5067444;28;20511;-68
2022/05/18 06:12:07;;;;;;;11.48;7.65;;;18.20;99.90;;;;;;5066949;28;20045;-68
2022/05/18 06:14:33;;;;;;;14.10;7.88;;;18.30;99.90;;;;;;5065385;28;20071;-68
2022/05/18 06:16:59;;;;;;;15.45;8.32;;;18.40;99.90;;;;;;5067232;28;20040;-67
2022/05/18 06:19:24;;;;;;;14.60;8.38;;;18.50;99.90;;;;;;5069794;28;20128;-68
2022/05/18 06:21:50;;;;;;;12.98;8.23;;;18.50;99.90;;;;;;5064795;28;20055;-68
2022/05/18 06:24:18;;;;;;;13.27;8.45;;;18.60;99.90;;;;;;5067609;28;20451;-68
2022/05/18 06:26:44;;;;;;;12.32;8.38;;;18.60;99.90;;;;;;5067229;28;20059;-67
2022/05/18 06:29:10;;;;;;;14.88;8.88;;;18.70;99.90;;;;;;5057805;28;20037;-68
2022/05/18 06:31:36;;;;;;;13.90;9.02;;;18.70;99.90;;;;;;5047593;28;20103;-67
2022/05/18 06:34:01;;;;;;;17.02;9.25;;;18.90;99.90;;;;;;5049088;28;20033;-67
2022/05/18 06:36:27;;;;;;;13.63;8.88;;;18.70;99.90;;;;;;5046301;28;20060;-68
2022/05/18 06:38:52;;;;;;;12.55;8.85;;;18.80;99.90;;;;;;5029642;28;20048;-67
2022/05/18 06:41:24;;;;;;;23.25;9.30;;;18.90;99.90;;;;;;5045861;28;20371;-68
2022/05/18 06:43:54;;;;;;;12.18;8.15;;;19.00;99.90;;;;;;5048835;28;20068;-68
2022/05/18 06:46:20;;;;;;;17.08;9.25;;;19.00;99.90;;;;;;5047223;28;20037;-68
2022/05/18 06:48:46;;;;;;;12.40;8.80;;;19.10;99.90;;;;;;5046685;28;20521;-68
2022/05/18 06:51:13;;;;;;;14.13;8.93;;;19.50;99.90;;;;;;5045931;28;20041;-68
2022/05/18 06:53:39;;;;;;;13.02;9.45;;;19.20;99.90;;;;;;5047702;28;20550;-68
2022/05/18 06:56:04;;;;;;;15.00;9.63;;;19.40;99.90;;;;;;5046315;28;20138;-68
2022/05/18 06:58:30;;;;;;;14.38;9.10;;;19.40;99.90;;;;;;5044427;28;20084;-70
2022/05/18 07:00:56;;;;;;;14.48;9.20;;;19.50;99.90;;;;;;5047764;28;20052;-68
2022/05/18 07:03:21;;;;;;;14.50;9.30;;;19.60;99.90;;;;;;5046495;28;20041;-67
2022/05/18 07:05:47;;;;;;;16.48;9.70;;;19.60;99.90;;;;;;5046126;28;20073;-67
2022/05/18 07:08:13;;;;;;;15.73;9.95;;;19.80;99.90;;;;;;5045074;28;20411;-67
2022/05/18 07:10:39;;;;;;;19.00;9.70;;;19.80;99.90;;;;;;5045681;28;20053;-67
2022/05/18 07:13:05;;;;;;;15.82;9.88;;;20.00;99.90;;;;;;5046493;28;20484;-67
2022/05/18 07:15:31;;;;;;;19.20;9.98;;;20.10;99.90;;;;;;5046809;28;20128;-68
2022/05/18 07:17:56;;;;;;;16.70;10.35;;;20.30;99.90;;;;;;5045514;28;20041;-67
2022/05/18 07:20:22;;;;;;;14.93;9.93;;;20.20;99.90;;;;;;5045337;28;20092;-67
2022/05/18 07:22:47;;;;;;;16.17;9.90;;;20.30;99.90;;;;;;5045247;28;20045;-67
2022/05/18 07:25:13;;;;;;;14.20;9.50;;;20.40;99.90;;;;;;5043366;28;20056;-67
2022/05/18 07:27:39;;;;;;;12.57;9.18;;;20.50;99.90;;;;;;5046107;28;20044;-68
2022/05/18 07:30:06;;;;;;;18.52;9.55;;;20.50;99.90;;;;;;5045458;28;20459;-67
2022/05/18 07:32:31;;;;;;;17.17;9.50;;;20.60;99.90;;;;;;5047560;28;20079;-67
2022/05/18 07:34:57;;;;;;;18.10;9.77;;;20.80;99.90;;;;;;5050978;28;20057;-67
2022/05/18 07:37:23;;;;;;;13.65;9.18;;;20.80;99.90;;;;;;5051162;28;20071;-68
2022/05/18 07:39:49;;;;;;;13.25;9.32;;;20.90;99.90;;;;;;5049395;28;20051;-67
2022/05/18 07:42:15;;;;;;;16.67;10.05;;;21.10;99.90;;;;;;5048364;28;20048;-67
2022/05/18 07:44:40;;;;;;;15.07;9.57;;;21.20;99.90;;;;;;5052907;28;20068;-67
2022/05/18 07:47:07;;;;;;;16.27;8.52;;;21.20;99.90;;;;;;5070589;28;20453;-68
2022/05/18 07:49:41;;;;;;;16.13;9.45;;;21.40;99.90;;;;;;5070504;28;20150;-67
2022/05/18 07:52:07;;;;;;;15.23;8.57;;;21.50;99.90;;;;;;5069318;28;20473;-67
2022/05/18 07:54:34;;;;;;;14.60;8.80;;;21.60;99.90;;;;;;5069900;28;20144;-69
2022/05/18 07:57:01;;;;;;;14.48;7.80;;;21.70;99.90;;;;;;5069208;28;20087;-68
2022/05/18 07:59:27;;;;;;;12.02;7.30;;;21.90;99.90;;;;;;5069078;28;20044;-67
2022/05/18 08:01:52;;;;;;;10.23;6.75;;;21.90;99.90;;;;;;5070110;28;20037;-67
2022/05/18 08:04:18;;;;;;;14.02;7.20;;;22.10;99.90;;;;;;5071681;28;20041;-68
2022/05/18 08:06:44;;;;;;;12.18;6.55;;;22.20;99.90;;;;;;5067796;28;20048;-67
2022/05/18 08:09:10;;;;;;;10.10;6.47;;;22.50;99.90;;;;;;5068484;28;20036;-67
2022/05/18 08:17:04;;;;;;;10.55;6.43;;;22.70;99.90;;;;;;5069803;28;20053;-67
2022/05/18 08:19:29;;;;;;;14.07;6.25;;;22.90;99.90;;;;;;5069017;28;20070;-68
2022/05/18 08:21:55;;;;;;;12.60;5.63;;;23.00;99.90;;;;;;5069585;28;20095;-68
2022/05/18 08:24:21;;;;;;;9.98;6.20;;;23.10;99.90;;;;;;5069148;28;20155;-67
2022/05/18 08:26:47;;;;;;;11.23;6.15;;;23.40;99.90;;;;;;5068590;28;20097;-68
2022/05/18 08:29:13;;;;;;;9.88;6.20;;;23.90;99.90;;;;;;5062005;28;20468;-68
2022/05/18 08:31:38;;;;;;;7.60;5.13;;;23.60;99.90;;;;;;5049562;28;20087;-68
2022/05/18 08:34:05;;;;;;;9.68;5.00;;;23.70;99.90;;;;;;5048894;28;20483;-67
2022/05/18 08:36:31;;;;;;;8.35;4.80;;;23.80;99.90;;;;;;5048618;28;20044;-68
2022/05/18 08:38:57;;;;;;;7.15;3.92;;;23.90;99.90;;;;;;5048634;28;20052;-67
2022/05/18 08:41:40;;;;;;;8.43;3.70;;;24.30;99.90;;;;;;5047825;28;20084;-67
2022/05/18 08:44:08;;;;;;;5.88;3.30;;;24.00;99.90;;;;;;5047636;28;20083;-67
2022/05/18 08:46:49;;;;;;;6.18;3.40;;;24.20;99.90;;;;;;5049634;28;20041;-67
2022/05/18 08:49:20;;;;;;;10.25;3.70;;;24.30;99.90;;;;;;5048195;28;20490;-68
2022/05/18 08:51:48;;;;;;;8.27;3.63;;;24.40;99.90;;;;;;5048780;28;20504;-67
2022/05/18 08:54:22;;;;;;;7.35;3.67;;;24.50;99.90;;;;;;5049324;28;20087;-68
2022/05/18 08:56:50;;;;;;;10.07;4.50;;;24.60;99.90;;;;;;5046711;28;20049;-68
2022/05/18 08:59:38;;;;;;;7.07;3.30;;;24.70;99.90;;;;;;5048753;28;20370;-68
2022/05/18 09:02:13;;;;;;;8.95;3.30;;;24.90;99.90;;;;;;5047174;28;20053;-68
2022/05/18 09:04:58;;;;;;;7.32;3.25;;;24.90;99.90;;;;;;5048086;28;20071;-69
2022/05/18 09:07:31;;;;;;;5.57;3.35;;;25.00;99.90;;;;;;5043808;28;20092;-69
2022/05/18 09:10:12;;;;;;;7.47;3.67;;;25.20;99.90;;;;;;5048479;28;20098;-68
2022/05/18 09:12:41;;;;;;;5.45;3.63;;;25.30;99.70;;;;;;5047840;28;20044;-68
2022/05/18 09:15:09;;;;;;;8.90;4.68;;;25.40;99.50;;;;;;5049699;28;20136;-68
2022/05/18 09:17:52;;;;;;;7.70;4.63;;;25.50;99.80;;;;;;5046780;28;20505;-68
2022/05/18 09:20:48;;;;;;;9.15;4.55;;;25.60;99.90;;;;;;5048718;28;20075;-68
2022/05/18 09:23:23;;;;;;;;;;;25.70;99.70;;;;;;5047799;28;20041;-68
2022/05/18 09:25:54;;;;;;;9.85;4.00;;;25.80;99.80;;;;;;5048939;28;20270;-68
2022/05/18 09:28:41;;;;;;;7.05;4.50;;;25.90;99.60;;;;;;5046725;28;20045;-67
2022/05/18 09:31:25;;;;;;;9.02;4.35;;;26.00;99.00;;;;;;5048266;28;20136;-67
2022/05/18 09:34:09;;;;;;;9.18;5.00;;;26.10;98.70;;;;;;5048956;28;20040;-67
2022/05/18 09:36:54;;;;;;;13.05;4.65;;;26.20;98.60;;;;;;5047781;28;20049;-68
2022/05/18 09:39:25;;;;;;;8.38;4.28;;;26.30;98.80;;;;;;5046782;28;20489;-68
2022/05/18 09:41:54;;;;;;;9.48;4.40;;;26.30;99.00;;;;;;5048638;28;20085;-68
2022/05/18 09:44:49;;;;;;;10.95;4.40;;;26.40;99.00;;;;;;5049422;28;20470;-69
2022/05/18 09:47:18;;;;;;;7.85;4.72;;;26.60;99.30;;;;;;5047924;28;20485;-68
2022/05/18 09:49:48;;;;;;;11.63;5.75;;;26.90;99.10;;;;;;5048742;28;20049;-68
2022/05/18 09:52:21;;;;;;;15.65;5.38;;;27.10;99.30;;;;;;5046465;28;20091;-68
2022/05/18 09:54:48;;;;;;;12.27;5.47;;;27.20;99.20;;;;;;5048259;28;20084;-68
2022/05/18 09:57:22;;;;;;;13.15;6.30;;;27.50;98.70;;;;;;5048370;28;20065;-68
2022/05/18 09:59:55;;;;;;;9.70;6.10;;;27.50;98.30;;;;;;5049862;28;20440;-68
2022/05/18 10:07:57;;;;;;;8.82;5.75;;;27.80;98.20;;;;;;5046949;28;20057;-68
2022/05/18 10:10:30;;;;;;;9.98;4.70;;;28.00;98.20;;;;;;5045395;28;20128;-68
2022/05/18 10:12:58;;;;;;;10.48;4.80;;;28.30;97.40;;;;;;5046053;28;20049;-68
2022/05/18 10:15:43;;;;;;;8.43;4.85;;;28.60;96.60;;;;;;5029463;28;20083;-68
2022/05/18 10:18:17;;;;;;;8.73;5.03;;;28.90;96.70;;;;;;5047630;28;20431;-68
2022/05/18 10:21:00;;;;;;;13.10;4.95;;;29.10;96.00;;;;;;5045831;28;20052;-68
2022/05/18 10:23:33;;;;;;;11.60;4.78;;;29.30;95.40;;;;;;5045670;28;20044;-68
2022/05/18 10:26:00;;;;;;;7.88;4.75;;;29.40;95.10;;;;;;5046903;28;20115;-68
2022/05/18 10:28:28;;;;;;;9.88;4.50;;;29.60;94.50;;;;;;5047167;28;20140;-68
2022/05/18 10:30:59;;;;;;;12.05;5.43;;;30.20;94.20;;;;;;5050490;28;20074;-68
2022/05/18 10:33:37;;;;;;;9.88;4.78;;;31.70;94.10;;;;;;5048829;28;20391;-68
2022/05/18 10:36:15;;;;;;;9.13;5.05;;;33.30;93.20;;;;;;5047861;28;20051;-67
2022/05/18 10:39:00;;;;;;;9.57;5.57;;;36.00;90.90;;;;;;5047757;28;20071;-68
2022/05/18 10:41:41;;;;;;;9.73;5.30;;;38.20;83.00;;;;;;5044707;28;20079;-68
2022/05/18 10:44:16;;;;;;;10.88;5.13;;;39.70;76.10;;;;;;5048958;28;20040;-68
2022/05/18 10:46:44;;;;;;;8.13;4.63;;;41.10;70.70;;;;;;5046996;28;20119;-68
2022/05/18 10:49:32;;;;;;;10.98;5.63;;;42.60;67.10;;;;;;5046657;28;20468;-67
2022/05/18 10:52:28;;;;;;;10.77;5.38;;;44.10;63.50;;;;;;5045930;28;20120;-68
2022/05/18 10:55:01;;;;;;;8.30;5.40;;;45.30;60.40;;;;;;5045769;28;20048;-68
2022/05/18 10:57:37;;;;;;;11.75;5.10;;;46.30;57.90;;;;;;5044033;28;20159;-68
2022/05/18 11:00:20;;;;;;;10.60;6.63;;;46.90;55.30;;;;;;5046251;28;20064;-69
2022/05/18 11:02:48;;;;;;;9.57;6.43;;;47.50;54.20;;;;;;5046885;28;20449;-69
2022/05/18 11:05:28;;;;;;;9.85;6.30;;;47.70;52.80;;;;;;5047000;28;20045;-69
2022/05/18 11:07:54;;;;;;;9.07;5.50;;;47.80;52.70;;;;;;5046983;28;20110;-69
2022/05/18 11:10:21;;;;;;;11.70;5.75;;;48.20;51.70;;;;;;5049906;28;20037;-68
2022/05/18 11:13:15;;;;;;;9.55;5.90;;;48.60;50.70;;;;;;5050156;28;20105;-68
2022/05/18 11:15:49;;;;;;;9.98;6.40;;;48.70;50.20;;;;;;5049330;28;20434;-69
2022/05/18 11:18:39;;;;;;;11.35;6.38;;;48.70;49.90;;;;;;5050255;28;20045;-67
2022/05/18 11:21:35;;;;;;;11.18;5.78;;;49.00;49.30;;;;;;5049492;28;20123;-67
2022/05/18 11:24:16;;;;;;;10.35;6.22;;;49.00;49.10;;;;;;5050283;28;20049;-68
2022/05/18 11:27:01;;;;;;;9.48;5.70;;;49.00;48.60;;;;;;5032139;28;20183;-68
2022/05/18 11:29:42;;;;;;;11.88;6.80;;;49.50;49.00;;;;;;5049646;28;20037;-67
2022/05/18 11:32:21;;;;;;;9.95;5.90;;;49.70;47.90;;;;;;5049950;28;20409;-68
2022/05/18 11:35:02;;;;;;;9.75;5.53;;;49.70;47.30;;;;;;5050852;28;20053;-69
2022/05/18 11:37:37;;;;;;;12.70;6.10;;;49.60;47.60;;;;;;5050868;28;20501;-68
2022/05/18 11:40:08;;;;;;;8.25;5.05;;;49.90;47.30;;;;;;5052895;28;20136;-68
2022/05/18 11:42:45;;;;;;;10.80;6.68;;;49.50;47.00;;;;;;5050743;28;20056;-67
2022/05/18 11:45:32;;;;;;;10.50;6.45;;;48.80;46.80;;;;;;5059204;28;20078;-68
2022/05/18 11:48:25;;;;;;;11.20;6.80;;;47.80;46.90;;;;;;5070379;28;20139;-68
2022/05/18 11:51:18;;;;;;;9.50;6.97;;;46.50;47.40;;;;;;5070147;28;20054;-68
2022/05/18 11:54:05;;;;;;;11.32;7.30;;;45.00;48.20;;;;;;5070366;28;20048;-69
2022/05/18 11:57:07;;;;;;;13.57;7.80;;;42.90;49.30;;;;;;5069241;28;20040;-69
2022/05/18 11:59:57;;;;;;;12.52;7.13;;;41.70;50.30;;;;;;5068893;28;20059;-69
2022/05/18 12:02:44;;;;;;;9.52;7.07;;;40.60;51.10;;;;;;5069532;28;20056;-68
2022/05/18 12:05:47;;;;;;;11.77;7.10;;;39.70;52.10;;;;;;5070917;28;20037;-69
2022/05/18 12:08:44;;;;;;;12.80;8.02;;;39.60;52.80;;;;;;5067582;28;20045;-69
2022/05/18 12:11:39;;;;;;;12.18;7.72;;;39.90;52.60;;;;;;5069634;28;20060;-68
2022/05/18 12:14:34;;;;;;;12.35;8.70;;;40.00;53.00;;;;;;5072091;28;20067;-69
2022/05/18 12:16:59;;;;;;;;;;;39.50;53.00;;;;;;5069352;28;20044;-68
2022/05/18 12:19:53;;;;;;;12.07;7.85;;;39.80;53.00;;;;;;5067439;28;19963;-68
2022/05/18 12:22:27;;;;;;;13.00;7.10;;;40.20;53.10;;;;;;5069221;28;20132;-68
2022/05/18 12:24:53;;;;;;;11.25;7.97;;;40.60;52.90;;;;;;5069121;28;20044;-68
2022/05/18 12:27:21;;;;;;;14.65;8.80;;;41.00;52.60;;;;;;5069765;28;20044;-68
2022/05/18 12:29:50;;;;;;;11.57;7.53;;;40.70;52.50;;;;;;5068204;28;20131;-68
2022/05/18 12:32:18;;;;;;;12.27;7.30;;;39.80;53.10;;;;;;5069399;28;20056;-68
2022/05/18 12:34:46;;;;;;;12.38;8.32;;;38.80;53.80;;;;;;5068898;28;20041;-68
2022/05/18 12:37:14;;;;;;;11.68;7.65;;;38.20;54.80;;;;;;5068660;28;20055;-68
2022/05/18 12:39:40;;;;;;;12.23;7.53;;;37.50;55.60;;;;;;5068640;28;20053;-68
2022/05/18 12:42:14;;;;;;;11.10;7.18;;;37.00;56.00;;;;;;5066986;28;20194;-68
2022/05/18 12:44:43;;;;;;;12.52;8.23;;;36.20;57.00;;;;;;5069195;28;20055;-69
2022/05/18 12:47:25;;;;;;;14.45;8.00;;;35.30;57.50;;;;;;5068826;28;20376;-68
2022/05/18 12:50:11;;;;;;;11.75;7.05;;;34.40;59.10;;;;;;5067861;28;20080;-69
2022/05/18 12:52:36;;;;;;;11.85;7.07;;;33.60;60.30;;;;;;5068957;28;20044;-69
2022/05/18 12:55:28;;;;;;;10.35;6.90;;;33.00;61.60;;;;;;5068471;28;20500;-68
2022/05/18 12:58:09;;;;;;;13.02;7.38;;;32.40;62.90;;;;;;5068214;28;20088;-67
2022/05/18 13:00:39;;;;;;;13.90;7.57;;;32.00;64.00;;;;;;5067255;28;20049;-67
2022/05/18 13:03:08;;;;;;;16.17;7.65;;;31.70;65.50;;;;;;5067479;28;20148;-66
2022/05/18 13:05:38;;;;;;;10.70;6.65;;;31.50;66.70;;;;;;5068729;28;20049;-67
2022/05/18 13:08:15;;;;;;;11.85;7.05;;;31.30;67.90;;;;;;5065753;28;20055;-67
2022/05/18 13:11:01;;;;;;;10.30;7.10;;;31.20;70.40;;;;;;5068336;28;20334;-68